METAR AND TAF INFORMATION
METAR FOR LYTV
ADDS - METARS form results

(2029 UTC 21 June 2021)
Data provider http://aviationweather.gov/metar/data/
 
Forecast for: LYTV (TIVAT , ME)
Text: TAF LYTV 211700Z 2118/2218 03005KT CAVOK TX32/2213Z TN19/2203Z
Forecast period: 1800 UTC 21 June 2021 to 1800 UTC 22 June 2021
Forecast type: FROM: standard forecast or significant change
Winds: from the NNE (30 degrees) at 6 MPH (5 knots; 2.6 m/s)
Visibility: 6 or more miles (10+ km)
Ceiling: unknown
Clouds: missing
Weather: no significant weather forecast for this period

 AIRPORT MAP

 RUNWAY INFORMATION

 AIRPORT FREQUENCIES
Type ARR Name APP Frequency 118 MHZ
Type TWR Name TWR Frequency 118 MHZ

 AIRPORT NEAR NAVIGATION AIDS
Type NDB Name Tivat Frequency 345 KHZ



2018 Air Astana Virtual Airline